Time;durP1;ratioP1;P1;durP2;ratioP2;P2;SDS_P1;SDS_P2;PMS_P1;PMS_P2;Temp;Humidity;BMP_temperature;BMP_pressure;BME280_temperature;BME280_humidity;BME280_pressure;Samples;Min_cycle;Max_cycle;Signal;HPM_P1;HPM_P2
2021/07/19 00:00:18;;;;;;;25.32;14.23;;;;;;;20.12;97.84;98887.72;4325042;80;21046;-84
2021/07/19 00:13:20;;;;;;;20.52;12.30;;;;;;;20.23;97.93;98886.04;4313152;80;21996;-84
2021/07/19 00:19:23;;;;;;;18.90;13.15;;;;;;;20.22;97.93;98890.05;4308710;80;21046;-84
2021/07/19 00:25:29;;;;;;;16.67;13.35;;;;;;;20.26;97.99;98894.28;4343319;80;21660;-84
2021/07/19 00:31:50;;;;;;;28.50;14.43;;;;;;;20.22;97.71;98906.73;4332498;80;21027;-84
2021/07/19 00:37:54;;;;;;;17.07;14.65;;;;;;;20.10;97.99;98895.70;4315547;80;21040;-83
2021/07/19 00:43:59;;;;;;;22.73;15.32;;;;;;;19.97;98.26;98903.22;4328675;80;21076;-84
2021/07/19 00:50:03;;;;;;;18.75;15.43;;;;;;;19.89;98.65;98894.91;4306471;80;21099;-84
2021/07/19 00:56:07;;;;;;;26.05;16.02;;;;;;;19.91;98.85;98901.59;4304760;79;20990;-85
2021/07/19 01:02:15;;;;;;;18.87;16.10;;;;;;;19.90;98.91;98900.65;4298567;79;21042;-84
2021/07/19 01:08:22;;;;;;;19.37;14.45;;;;;;;19.86;98.87;98900.73;4332250;79;21598;-84
2021/07/19 01:14:38;;;;;;;20.30;15.20;;;;;;;19.82;99.22;98893.13;4313129;80;21026;-85
2021/07/19 01:21:22;;;;;;;22.32;14.90;;;;;;;19.88;99.20;98905.25;4308572;80;21529;-82
2021/07/19 01:41:07;;;;;;;19.80;14.47;;;;;;;19.75;99.49;98900.25;4259132;81;21559;-85
2021/07/19 01:47:10;;;;;;;23.10;14.15;;;;;;;19.68;99.75;98912.95;4353048;80;21051;-83
2021/07/19 01:53:17;;;;;;;18.32;14.25;;;;;;;19.64;100.00;98898.37;4328231;79;21052;-84
2021/07/19 01:59:22;;;;;;;16.42;13.35;;;;;;;19.73;100.00;98908.23;4303111;80;21094;-84
2021/07/19 02:06:03;;;;;;;20.12;12.33;;;;;;;19.66;99.87;98904.88;4300524;79;21022;-84
2021/07/19 02:12:31;;;;;;;20.05;10.32;;;;;;;19.69;100.00;98907.56;4311632;79;21062;-84
2021/07/19 02:18:52;;;;;;;15.48;10.18;;;;;;;19.70;99.65;98907.72;4326713;80;21130;-88
2021/07/19 02:25:00;;;;;;;13.20;9.17;;;;;;;19.70;99.63;98919.45;4329979;79;21582;-84
2021/07/19 02:31:11;;;;;;;13.38;7.60;;;;;;;19.72;99.25;98922.55;4338234;79;21773;-81
2021/07/19 02:37:23;;;;;;;11.67;7.60;;;;;;;19.64;99.22;98926.73;4318334;79;21175;-82
2021/07/19 02:43:30;;;;;;;9.45;6.15;;;;;;;19.58;98.73;98921.55;4323080;80;21566;-82
2021/07/19 02:50:13;;;;;;;14.30;6.17;;;;;;;19.52;98.50;98928.25;4313761;80;21131;-83
2021/07/19 02:56:28;;;;;;;8.95;6.22;;;;;;;19.52;98.51;98926.86;4339745;79;21067;-85
2021/07/19 03:02:55;;;;;;;8.60;4.67;;;;;;;19.34;98.43;98932.69;4344954;78;21574;-84
2021/07/19 03:09:04;;;;;;;14.38;4.90;;;;;;;19.22;98.03;98943.84;4324554;80;21527;-84
2021/07/19 03:15:17;;;;;;;12.03;4.33;;;;;;;19.03;97.76;98936.38;4270297;80;21705;-84
2021/07/19 03:21:22;;;;;;;11.22;4.10;;;;;;;19.18;98.65;98948.71;4243227;81;21059;-85
2021/07/19 03:34:07;;;;;;;11.20;4.45;;;;;;;19.15;97.69;98948.19;3927756;86;26717;-85
2021/07/19 03:40:39;;;;;;;12.10;4.37;;;;;;;19.13;97.40;98947.05;3948605;86;21112;-84
2021/07/19 03:46:47;;;;;;;10.50;4.40;;;;;;;19.15;97.58;98953.73;3963265;86;22204;-85
2021/07/19 03:52:54;;;;;;;9.35;4.08;;;;;;;19.05;97.48;98947.83;3945239;86;21092;-85
2021/07/19 03:58:58;;;;;;;9.75;5.20;;;;;;;19.01;97.35;98945.75;3959398;87;22381;-85
2021/07/19 04:05:05;;;;;;;7.72;4.08;;;;;;;18.95;96.99;98942.53;3975459;86;21762;-85
2021/07/19 04:11:20;;;;;;;11.97;4.50;;;;;;;18.98;97.58;98941.67;3958500;87;21160;-84
2021/07/19 04:17:33;;;;;;;7.83;4.20;;;;;;;18.97;97.08;98942.27;3962368;85;21103;-85
2021/07/19 04:23:41;;;;;;;9.10;4.03;;;;;;;19.00;97.62;98953.88;3954940;87;21178;-85
2021/07/19 04:29:52;;;;;;;9.33;3.98;;;;;;;19.17;97.74;98955.45;3945811;86;21136;-86
2021/07/19 04:35:56;;;;;;;7.70;3.87;;;;;;;19.35;97.91;98953.08;3954615;86;21563;-84
2021/07/19 04:48:22;;;;;;;12.75;4.42;;;;;;;19.44;96.92;98969.89;3953315;87;21052;-84
2021/07/19 04:54:37;;;;;;;7.62;3.87;;;;;;;19.53;96.96;98968.66;3972264;86;21078;-85
2021/07/19 05:00:59;;;;;;;15.60;4.17;;;;;;;19.56;96.46;98965.02;3972411;86;21115;-85
2021/07/19 05:07:37;;;;;;;8.40;3.55;;;;;;;19.55;96.31;98965.45;3954954;86;21060;-85
2021/07/19 05:14:03;;;;;;;6.47;3.70;;;;;;;19.59;96.44;98969.70;3941478;87;21118;-85
2021/07/19 05:20:19;;;;;;;8.80;3.70;;;;;;;19.68;96.12;98974.64;3955342;86;21179;-84
2021/07/19 05:33:06;;;;;;;7.33;3.40;;;;;;;19.83;96.45;98969.67;3886782;88;21596;-85
2021/07/19 05:39:14;;;;;;;10.60;3.52;;;;;;;19.93;95.85;98964.45;3925639;88;21846;-85
2021/07/19 05:45:16;;;;;;;8.75;3.60;;;;;;;20.01;96.00;98953.30;3942230;87;21163;-85
2021/07/19 05:51:26;;;;;;;7.72;4.40;;;;;;;20.05;95.60;98954.59;3926754;88;21244;-85
2021/07/19 05:57:29;;;;;;;8.70;4.12;;;;;;;20.15;95.01;98957.09;3935708;87;21160;-87
2021/07/19 06:03:37;;;;;;;7.87;3.47;;;;;;;20.14;94.38;98968.66;3959804;86;21574;-83
2021/07/19 06:09:53;;;;;;;10.88;4.67;;;;;;;20.01;94.10;98979.69;3940388;86;21218;-84
2021/07/19 06:16:00;;;;;;;9.73;4.97;;;;;;;20.09;94.00;98981.69;3960438;87;21700;-84
2021/07/19 06:22:32;;;;;;;14.25;4.80;;;;;;;20.20;94.13;98988.53;3943051;86;21092;-84
2021/07/19 06:28:43;;;;;;;8.88;5.55;;;;;;;20.26;93.90;98996.34;3952706;86;21131;-84
2021/07/19 06:34:45;;;;;;;11.10;6.60;;;;;;;20.23;93.12;99000.78;3965088;86;21111;-84
2021/07/19 06:40:46;;;;;;;10.32;6.30;;;;;;;20.16;92.91;99010.09;3962487;86;21132;-84
2021/07/19 06:47:05;;;;;;;11.60;5.37;;;;;;;20.17;93.20;99010.25;3953835;86;21072;-84
2021/07/19 06:53:14;;;;;;;12.28;6.47;;;;;;;20.24;92.97;99019.02;3954674;86;21110;-84
2021/07/19 06:59:40;;;;;;;10.60;6.42;;;;;;;20.27;92.89;99027.86;3956061;87;21117;-84
2021/07/19 07:05:54;;;;;;;10.82;6.30;;;;;;;20.31;93.20;99020.82;3955972;86;21030;-83
2021/07/19 07:12:15;;;;;;;9.00;5.72;;;;;;;20.48;92.93;99023.11;3960497;87;21090;-84
2021/07/19 07:18:38;;;;;;;10.70;5.03;;;;;;;20.60;92.40;99028.52;3962192;87;21168;-83
2021/07/19 07:24:59;;;;;;;8.25;5.53;;;;;;;20.85;92.65;99027.19;3941958;86;21127;-83
2021/07/19 07:37:47;;;;;;;8.68;6.15;;;;;;;21.31;91.30;99025.22;3965418;86;21251;-83
2021/07/19 07:43:56;;;;;;;10.78;6.03;;;;;;;21.20;91.00;99014.42;3960675;86;21043;-84
2021/07/19 07:49:58;;;;;;;8.83;6.33;;;;;;;21.14;91.29;99023.13;3969138;86;21074;-83
2021/07/19 07:56:16;;;;;;;12.03;5.90;;;;;;;21.37;91.10;99015.07;3963917;86;21084;-83
2021/07/19 08:02:18;;;;;;;9.50;5.70;;;;;;;21.55;90.85;99017.45;3967124;86;21179;-83
2021/07/19 08:08:34;;;;;;;14.87;5.75;;;;;;;21.51;90.05;99011.23;3953912;86;21144;-83
2021/07/19 08:27:50;;;;;;;9.40;6.50;;;;;;;22.31;88.67;99011.09;3945548;86;21187;-83
2021/07/19 08:33:51;;;;;;;12.13;6.87;;;;;;;22.31;87.78;99005.51;3949513;86;21166;-83
2021/07/19 08:39:53;;;;;;;9.43;6.03;;;;;;;22.45;86.78;98998.62;3954689;86;21111;-82
2021/07/19 08:45:54;;;;;;;10.85;6.00;;;;;;;22.77;86.43;98994.08;3978615;86;21090;-83
2021/07/19 08:52:02;;;;;;;9.85;5.70;;;;;;;22.77;85.65;98999.66;3947007;86;21127;-82
2021/07/19 08:58:04;;;;;;;14.05;7.00;;;;;;;22.60;85.03;98999.08;3939746;86;21116;-83
2021/07/19 09:04:21;;;;;;;14.43;6.47;;;;;;;22.41;84.85;98999.39;3946540;87;21124;-83
2021/07/19 09:10:29;;;;;;;12.03;6.78;;;;;;;22.46;85.02;98993.20;3956382;86;21088;-83
2021/07/19 09:16:49;;;;;;;10.03;6.72;;;;;;;22.96;85.30;98992.91;3940078;86;21077;-83
2021/07/19 09:22:53;;;;;;;11.25;7.30;;;;;;;23.45;84.51;98981.20;3950100;86;21070;-83
2021/07/19 09:29:04;;;;;;;11.05;6.70;;;;;;;23.82;83.16;98970.24;3974089;86;21611;-82
2021/07/19 09:35:11;;;;;;;12.50;5.70;;;;;;;24.19;82.55;98973.88;3967083;87;21123;-83
2021/07/19 09:41:18;;;;;;;11.28;6.58;;;;;;;24.41;81.18;98968.89;3939283;87;21144;-83
2021/07/19 09:47:21;;;;;;;8.08;5.87;;;;;;;24.81;80.50;98965.89;3963773;86;21464;-82
2021/07/19 09:53:39;;;;;;;12.73;5.60;;;;;;;24.63;78.97;98967.43;3950526;86;21088;-83
2021/07/19 09:59:56;;;;;;;10.70;5.47;;;;;;;24.65;78.39;98955.77;3957837;86;21119;-82
2021/07/19 10:06:07;;;;;;;9.20;5.95;;;;;;;24.65;78.39;98955.77;3963711;86;21095;-82
2021/07/19 10:12:14;;;;;;;8.95;5.65;;;;;;;25.48;78.02;98952.99;3939138;87;21135;-82
2021/07/19 10:18:17;;;;;;;9.13;5.50;;;;;;;25.59;76.73;98936.42;3975987;86;21136;-81
2021/07/19 10:24:20;;;;;;;9.93;6.58;;;;;;;25.71;76.56;98935.42;3953492;86;21115;-83
2021/07/19 10:30:22;;;;;;;9.68;4.90;;;;;;;26.25;75.74;98922.98;3951454;86;21056;-81
2021/07/19 10:36:42;;;;;;;9.43;5.28;;;;;;;26.10;74.52;98920.80;3950874;86;21025;-82
2021/07/19 10:42:49;;;;;;;9.53;5.45;;;;;;;25.37;73.17;98926.77;3959371;86;21106;-82
2021/07/19 10:49:14;;;;;;;8.55;5.83;;;;;;;25.33;73.78;98917.13;3951438;86;21122;-82
2021/07/19 10:55:29;;;;;;;7.35;4.97;;;;;;;26.01;73.71;98912.47;3980148;86;21184;-82
2021/07/19 11:01:31;;;;;;;12.80;5.75;;;;;;;26.59;72.05;98905.50;3964029;87;21612;-82
2021/07/19 11:07:45;;;;;;;9.93;5.70;;;;;;;26.47;70.55;98898.13;3931543;86;21164;-82
2021/07/19 11:13:52;;;;;;;8.30;5.53;;;;;;;26.50;70.04;98890.80;3954430;86;22091;-81
2021/07/19 11:19:56;;;;;;;7.80;5.75;;;;;;;27.14;68.52;98889.53;3972670;84;21113;-82
2021/07/19 11:26:01;;;;;;;10.53;6.50;;;;;;;27.78;66.80;98885.81;3934896;87;21095;-82
2021/07/19 11:32:19;;;;;;;7.70;6.35;;;;;;;27.97;66.40;98882.88;3961430;87;21251;-84
2021/07/19 11:38:20;;;;;;;11.25;7.83;;;;;;;28.50;65.91;98883.17;3956645;86;21060;-81
2021/07/19 11:44:23;;;;;;;9.53;7.00;;;;;;;29.11;64.08;98887.27;3966686;86;21135;-81
2021/07/19 11:50:26;;;;;;;11.80;6.12;;;;;;;29.23;63.43;98881.05;3959119;86;21156;-82
2021/07/19 11:56:31;;;;;;;9.78;7.30;;;;;;;28.97;62.35;98868.44;3945893;86;22072;-82
2021/07/19 12:02:33;;;;;;;14.90;8.03;;;;;;;28.39;61.31;98868.97;3946715;87;21120;-81
2021/07/19 12:08:38;;;;;;;13.30;8.60;;;;;;;27.63;60.79;98866.85;3931607;87;21129;-82
2021/07/19 12:14:41;;;;;;;15.65;9.85;;;;;;;27.07;60.77;98852.65;3958393;86;21081;-82
2021/07/19 12:20:43;;;;;;;13.95;10.10;;;;;;;26.59;60.71;98849.98;3962332;86;21135;-81
2021/07/19 12:26:55;;;;;;;13.78;9.33;;;;;;;26.00;60.22;98854.81;3952196;86;21103;-80
2021/07/19 12:32:57;;;;;;;11.90;8.95;;;;;;;25.78;60.00;98843.92;3949690;87;21147;-81
2021/07/19 12:38:59;;;;;;;14.47;10.13;;;;;;;25.88;58.80;98839.01;3948872;86;21205;-82
2021/07/19 12:45:04;;;;;;;12.78;9.65;;;;;;;26.02;57.83;98844.67;3944545;86;21092;-81
2021/07/19 12:51:07;;;;;;;14.73;9.03;;;;;;;26.04;56.35;98839.33;3943319;86;21620;-81
2021/07/19 12:57:10;;;;;;;11.55;8.78;;;;;;;25.96;54.44;98831.15;3955549;86;21137;-82
2021/07/19 13:03:14;;;;;;;13.95;9.08;;;;;;;25.90;54.27;98822.48;3938842;86;21188;-82
2021/07/19 13:09:28;;;;;;;11.53;9.15;;;;;;;25.91;54.10;98815.61;3949365;86;21199;-82
2021/07/19 13:15:34;;;;;;;12.00;8.38;;;;;;;25.83;53.96;98811.02;3930887;87;21560;-81
2021/07/19 13:21:36;;;;;;;11.90;9.00;;;;;;;25.76;53.63;98809.22;3927216;87;21735;-82
2021/07/19 13:27:42;;;;;;;13.00;10.43;;;;;;;25.81;52.49;98803.70;3949966;86;21048;-81
2021/07/19 13:33:44;;;;;;;16.52;8.93;;;;;;;25.83;52.41;98804.63;3952579;87;21100;-81
2021/07/19 13:39:46;;;;;;;14.23;10.00;;;;;;;25.81;52.96;98806.51;3939883;86;21076;-81
2021/07/19 13:45:57;;;;;;;15.15;9.88;;;;;;;25.68;52.60;98804.63;3943025;86;21074;-81
2021/07/19 13:51:58;;;;;;;11.60;9.55;;;;;;;25.64;52.34;98803.23;3942570;86;21150;-81
2021/07/19 13:57:59;;;;;;;15.72;10.55;;;;;;;25.65;52.41;98799.20;3948759;87;21158;-82
2021/07/19 14:04:03;;;;;;;15.18;10.82;;;;;;;25.63;52.53;98806.69;3953010;87;21696;-82
2021/07/19 14:10:05;;;;;;;13.70;10.40;;;;;;;25.54;51.25;98804.59;3939337;87;21230;-81
2021/07/19 14:16:08;;;;;;;15.78;11.40;;;;;;;25.51;52.05;98803.50;3951656;87;21160;-80
2021/07/19 14:22:09;;;;;;;13.80;11.45;;;;;;;25.56;52.80;98805.64;3936644;87;21607;-81
2021/07/19 14:28:11;;;;;;;17.55;13.08;;;;;;;25.64;52.39;98806.04;3942921;87;21104;-81
2021/07/19 14:34:13;;;;;;;21.17;15.95;;;;;;;25.67;51.66;98800.88;3974582;86;21697;-81
2021/07/19 14:40:20;;;;;;;19.23;14.00;;;;;;;25.63;51.25;98792.67;3953471;86;21142;-80
2021/07/19 14:46:22;;;;;;;19.82;15.10;;;;;;;25.63;51.13;98785.66;3940627;87;21139;-83
2021/07/19 14:52:24;;;;;;;19.27;13.60;;;;;;;25.60;51.98;98792.23;3954383;87;21085;-81
2021/07/19 14:58:26;;;;;;;26.37;17.12;;;;;;;25.58;52.60;98786.33;3957239;86;21151;-82
2021/07/19 15:04:28;;;;;;;20.82;16.52;;;;;;;25.48;51.72;98777.09;3947919;87;21099;-81
2021/07/19 15:10:30;;;;;;;18.92;15.18;;;;;;;25.42;51.40;98775.56;3960154;86;21073;-81
2021/07/19 15:16:33;;;;;;;21.23;16.82;;;;;;;25.40;51.65;98774.50;3944007;87;21080;-81
2021/07/19 15:22:36;;;;;;;20.08;15.63;;;;;;;25.10;52.75;98744.83;3943334;87;21181;-82
2021/07/19 15:28:37;;;;;;;20.97;16.27;;;;;;;25.10;52.75;98744.83;3937206;86;21178;-81
2021/07/19 15:34:38;;;;;;;20.17;15.70;;;;;;;25.15;52.10;98769.38;3943751;86;21124;-81
2021/07/19 15:40:40;;;;;;;19.95;14.90;;;;;;;25.05;51.83;98757.47;3940832;87;21801;-81
2021/07/19 15:46:42;;;;;;;21.02;13.50;;;;;;;25.04;51.75;98773.34;3942104;87;21084;-81
2021/07/19 15:52:43;;;;;;;18.60;13.65;;;;;;;24.88;52.63;98768.16;3956105;86;21088;-80
2021/07/19 15:58:44;;;;;;;18.65;13.25;;;;;;;24.79;52.01;98776.62;3964855;86;21088;-82
2021/07/19 16:04:50;;;;;;;17.35;11.73;;;;;;;24.75;52.20;98774.60;3952533;87;21063;-81
2021/07/19 16:10:51;;;;;;;15.72;10.78;;;;;;;24.60;52.79;98777.31;3943190;86;21029;-81
2021/07/19 16:16:53;;;;;;;15.85;9.95;;;;;;;24.50;53.04;98780.78;3962396;86;21186;-80
2021/07/19 16:22:58;;;;;;;14.38;10.32;;;;;;;24.46;53.20;98778.76;3955875;86;21133;-81
2021/07/19 16:28:59;;;;;;;14.05;8.33;;;;;;;24.33;53.70;98795.61;3950050;87;21106;-82
2021/07/19 16:35:08;;;;;;;11.53;8.05;;;;;;;24.22;54.26;98796.73;3955700;86;21175;-81
2021/07/19 16:41:13;;;;;;;12.90;7.92;;;;;;;24.10;54.35;98805.45;3961472;87;21627;-81
2021/07/19 16:47:14;;;;;;;12.30;7.55;;;;;;;24.01;54.75;98811.08;3954388;86;21090;-80
2021/07/19 16:53:15;;;;;;;13.03;7.97;;;;;;;23.93;55.10;98807.02;3940170;86;21607;-81
2021/07/19 16:59:16;;;;;;;12.25;8.40;;;;;;;23.85;55.81;98813.42;3960289;86;21056;-80
2021/07/19 17:05:18;;;;;;;14.70;9.58;;;;;;;23.81;55.88;98821.17;3965973;86;21572;-80
2021/07/19 17:11:20;;;;;;;13.05;8.85;;;;;;;23.80;55.87;98821.03;3948456;86;21091;-81
2021/07/19 17:17:27;;;;;;;15.05;9.30;;;;;;;23.73;56.19;98839.50;3985202;86;21056;-81
2021/07/19 17:23:30;;;;;;;15.25;8.43;;;;;;;23.62;56.51;98828.80;3936719;87;21041;-81
2021/07/19 17:29:31;;;;;;;22.67;8.68;;;;;;;23.46;56.95;98834.69;3942286;86;21155;-81
2021/07/19 17:35:34;;;;;;;10.98;7.95;;;;;;;23.27;57.84;98848.50;3931506;87;21123;-82
2021/07/19 17:41:35;;;;;;;13.90;8.58;;;;;;;23.13;58.57;98855.41;3956435;87;21901;-80
2021/07/19 17:47:37;;;;;;;16.90;7.35;;;;;;;22.93;59.67;98862.03;3945319;86;21058;-82
2021/07/19 17:53:39;;;;;;;10.80;6.45;;;;;;;22.71;60.08;98868.92;3944672;87;21064;-80
2021/07/19 17:59:40;;;;;;;15.72;7.62;;;;;;;22.48;60.86;98888.33;3939329;87;21552;-81
2021/07/19 18:05:43;;;;;;;11.53;6.97;;;;;;;22.29;61.13;98887.27;3946730;87;21516;-81
2021/07/19 18:11:45;;;;;;;10.50;6.70;;;;;;;22.04;61.63;98891.59;3958186;87;21171;-80
2021/07/19 18:17:47;;;;;;;10.08;6.22;;;;;;;21.83;61.86;98896.56;3954384;86;21104;-82
2021/07/19 18:23:51;;;;;;;10.58;6.70;;;;;;;21.64;62.20;98899.78;3954577;87;21551;-80
2021/07/19 18:36:13;;;;;;;9.30;5.78;;;;;;;21.34;63.06;98915.73;3934682;86;21596;-81
2021/07/19 18:42:16;;;;;;;12.37;6.85;;;;;;;21.23;63.58;98918.87;3949003;86;21136;-80
2021/07/19 18:48:19;;;;;;;16.60;6.65;;;;;;;21.20;64.47;98930.12;3956273;86;22309;-84
2021/07/19 18:54:21;;;;;;;8.58;6.25;;;;;;;21.14;65.29;98943.05;3961369;86;21187;-82
2021/07/19 19:00:27;;;;;;;13.98;7.03;;;;;;;21.02;65.58;98959.12;3938336;86;21418;-82
2021/07/19 19:06:29;;;;;;;18.45;6.35;;;;;;;20.92;65.87;98965.15;3944392;87;21159;-83
2021/07/19 19:12:31;;;;;;;8.60;6.35;;;;;;;20.79;66.80;98976.90;3953995;86;21574;-82
2021/07/19 19:18:32;;;;;;;8.65;5.85;;;;;;;20.77;67.59;98986.29;3955271;87;21073;-83
2021/07/19 19:24:34;;;;;;;9.90;5.97;;;;;;;20.74;68.31;98990.56;3941285;87;21077;-82
2021/07/19 19:30:37;;;;;;;9.95;6.00;;;;;;;20.67;68.86;98997.73;3940334;88;21070;-82
2021/07/19 19:36:39;;;;;;;11.08;7.55;;;;;;;20.70;69.26;98997.64;3957120;86;21100;-82
2021/07/19 19:42:40;;;;;;;15.63;8.10;;;;;;;20.68;69.40;98995.12;3924732;87;21063;-82
2021/07/19 19:48:42;;;;;;;13.85;7.78;;;;;;;20.57;70.03;99002.39;3962686;86;21091;-86
2021/07/19 19:54:43;;;;;;;15.35;7.90;;;;;;;20.53;70.51;99003.72;3941409;87;21063;-82
2021/07/19 20:07:15;;;;;;;19.42;9.50;;;;;;;20.49;71.02;98992.69;3958034;87;21085;-83
2021/07/19 20:13:17;;;;;;;15.43;8.73;;;;;;;20.45;70.98;98998.97;3953727;86;21151;-82
2021/07/19 20:19:19;;;;;;;14.70;7.90;;;;;;;20.24;71.38;98995.38;3954206;87;21168;-83
2021/07/19 20:25:25;;;;;;;20.85;8.18;;;;;;;20.16;71.43;98998.98;3936044;86;21362;-81
2021/07/19 20:31:27;;;;;;;13.48;7.95;;;;;;;20.20;72.12;99007.98;3938084;87;21582;-82
2021/07/19 20:37:29;;;;;;;13.68;7.75;;;;;;;20.18;72.15;99004.09;3928472;86;21081;-83
2021/07/19 20:43:30;;;;;;;15.15;7.42;;;;;;;20.17;72.92;99003.30;3966851;86;21175;-81
2021/07/19 20:49:34;;;;;;;14.55;7.30;;;;;;;20.12;73.27;99008.60;3926624;87;22313;-82
2021/07/19 20:55:35;;;;;;;13.88;7.70;;;;;;;20.09;73.70;99002.53;3952664;86;21056;-82
2021/07/19 21:01:37;;;;;;;13.03;7.33;;;;;;;20.10;73.90;99010.43;3966832;86;21217;-83
2021/07/19 21:07:39;;;;;;;14.80;7.83;;;;;;;20.09;73.83;99011.63;3959518;86;21192;-82
2021/07/19 21:13:41;;;;;;;11.93;6.55;;;;;;;20.07;74.38;99018.25;3949768;87;21120;-82
2021/07/19 21:19:43;;;;;;;11.22;6.40;;;;;;;20.03;74.38;99008.42;3963567;86;21107;-82
2021/07/19 21:25:46;;;;;;;15.93;7.50;;;;;;;20.08;74.54;99009.29;3937151;87;21092;-82
2021/07/19 21:38:52;;;;;;;11.83;6.50;;;;;;;20.02;74.58;99007.66;3961147;86;21168;-83
2021/07/19 21:44:53;;;;;;;14.65;7.25;;;;;;;19.96;74.67;99007.23;3964475;86;21159;-82
2021/07/19 21:50:54;;;;;;;14.68;7.28;;;;;;;19.94;74.98;99009.66;3971533;86;21079;-82
2021/07/19 21:56:56;;;;;;;13.83;7.60;;;;;;;19.96;75.29;99009.42;3950551;86;21089;-82
2021/07/19 22:03:00;;;;;;;12.93;7.72;;;;;;;19.94;75.44;99000.73;3975250;87;21111;-82
2021/07/19 22:09:02;;;;;;;13.65;6.65;;;;;;;19.90;75.62;99005.61;3938764;86;21106;-80
2021/07/19 22:15:07;;;;;;;14.45;6.92;;;;;;;19.89;75.81;99002.64;3956169;86;21604;-82
2021/07/19 22:21:09;;;;;;;11.38;7.50;;;;;;;19.90;76.16;99004.23;3978444;86;21012;-82
2021/07/19 22:27:11;;;;;;;13.05;7.47;;;;;;;19.86;76.15;99006.89;3924972;87;21386;-82
2021/07/19 22:33:21;;;;;;;14.65;7.55;;;;;;;19.83;76.35;99004.39;3967587;86;21558;-82
2021/07/19 22:39:19;;;;;;;12.20;7.42;;;;;;;19.81;76.73;99004.04;3946868;86;21172;-82
2021/07/19 22:45:24;;;;;;;11.30;6.50;;;;;;;19.83;76.93;98998.05;3937460;87;21065;-82
2021/07/19 22:51:28;;;;;;;15.00;7.78;;;;;;;19.83;77.19;99000.23;3966626;86;21095;-82
2021/07/19 22:57:32;;;;;;;16.23;7.47;;;;;;;19.73;77.56;99003.28;3950306;86;21747;-82
2021/07/19 23:03:34;;;;;;;14.03;7.67;;;;;;;19.70;77.88;98997.98;3949953;87;21656;-82
2021/07/19 23:09:36;;;;;;;16.85;7.90;;;;;;;19.71;77.97;99003.72;3949945;86;21582;-81
2021/07/19 23:15:39;;;;;;;12.80;8.50;;;;;;;19.63;78.00;98998.17;3951706;86;21140;-82
2021/07/19 23:21:40;;;;;;;17.98;7.90;;;;;;;19.53;78.20;99001.98;3941555;87;21128;-81
2021/07/19 23:27:42;;;;;;;16.12;7.95;;;;;;;19.39;78.42;98998.77;3944229;86;21718;-82
2021/07/19 23:33:55;;;;;;;14.50;7.60;;;;;;;19.30;78.48;98997.20;3959636;87;21163;-84
2021/07/19 23:39:56;;;;;;;15.80;8.88;;;;;;;19.17;78.41;98987.99;3942772;87;21638;-87
2021/07/19 23:45:58;;;;;;;15.60;8.60;;;;;;;19.06;79.14;98997.92;3951427;86;21107;-85
2021/07/19 23:51:59;;;;;;;17.77;7.33;;;;;;;18.92;79.75;98995.47;3953094;86;21755;-84
2021/07/19 23:58:21;;;;;;;13.65;8.33;;;;;;;18.79;80.20;98991.03;3958642;87;21064;-84
